<?xml version="1.0" encoding="UTF-8" standalone="no" ?>
<gpx xmlns="http://www.topografix.com/GPX/1/1" xmlns:xsi="http://www.w3.org/2001/XMLSchema-instance" xsi:schemaLocation="http://www.topografix.com/GPX/1/1 http://www.topografix.com/GPX/1/1/gpx.xsd" version="1.1" creator="VisuGPX - https://www.visugpx.com">
  <metadata>
    <name>St Jean St Privat Usclas</name>
    <desc><![CDATA[a faire]]></desc>
  </metadata>
  <trk>
    <name><![CDATA[9066038-35 Kms - St Jean St Privat Usclas]]></name>
    <trkseg>
      <trkpt lat="43.71383" lon="3.42035">
        <ele>168</ele>
        <time>2022-10-21T22:06:43Z</time>
      </trkpt>
      <trkpt lat="43.71454" lon="3.42147">
        <ele>171</ele>
        <time>2022-10-21T22:07:08Z</time>
      </trkpt>
      <trkpt lat="43.71361" lon="3.42177">
        <ele>166</ele>
        <time>2022-10-21T22:07:30Z</time>
      </trkpt>
      <trkpt lat="43.71249" lon="3.42185">
        <ele>160</ele>
        <time>2022-10-21T22:07:57Z</time>
      </trkpt>
      <trkpt lat="43.71156" lon="3.42181">
        <ele>156</ele>
        <time>2022-10-21T22:08:18Z</time>
      </trkpt>
      <trkpt lat="43.7107" lon="3.42164">
        <ele>153</ele>
        <time>2022-10-21T22:08:39Z</time>
      </trkpt>
      <trkpt lat="43.70899" lon="3.42091">
        <ele>153</ele>
        <time>2022-10-21T22:09:20Z</time>
      </trkpt>
      <trkpt lat="43.70837" lon="3.42065">
        <ele>150</ele>
        <time>2022-10-21T22:09:36Z</time>
      </trkpt>
      <trkpt lat="43.70781" lon="3.42061">
        <ele>150</ele>
        <time>2022-10-21T22:09:49Z</time>
      </trkpt>
      <trkpt lat="43.70657" lon="3.42061">
        <ele>148</ele>
        <time>2022-10-21T22:10:18Z</time>
      </trkpt>
      <trkpt lat="43.7062" lon="3.42074">
        <ele>146</ele>
        <time>2022-10-21T22:10:27Z</time>
      </trkpt>
      <trkpt lat="43.70586" lon="3.4201">
        <ele>150</ele>
        <time>2022-10-21T22:10:40Z</time>
      </trkpt>
      <trkpt lat="43.70393" lon="3.42057">
        <ele>137</ele>
        <time>2022-10-21T22:11:26Z</time>
      </trkpt>
      <trkpt lat="43.70288" lon="3.4198">
        <ele>137</ele>
        <time>2022-10-21T22:11:53Z</time>
      </trkpt>
      <trkpt lat="43.70182" lon="3.41997">
        <ele>131</ele>
        <time>2022-10-21T22:12:18Z</time>
      </trkpt>
      <trkpt lat="43.69974" lon="3.41812">
        <ele>133</ele>
        <time>2022-10-21T22:13:16Z</time>
      </trkpt>
      <trkpt lat="43.69922" lon="3.41795">
        <ele>129</ele>
        <time>2022-10-21T22:13:29Z</time>
      </trkpt>
      <trkpt lat="43.69866" lon="3.41666">
        <ele>130</ele>
        <time>2022-10-21T22:13:54Z</time>
      </trkpt>
      <trkpt lat="43.69726" lon="3.41692">
        <ele>123</ele>
        <time>2022-10-21T22:14:27Z</time>
      </trkpt>
      <trkpt lat="43.69698" lon="3.41593">
        <ele>125</ele>
        <time>2022-10-21T22:14:45Z</time>
      </trkpt>
      <trkpt lat="43.69639" lon="3.41546">
        <ele>122</ele>
        <time>2022-10-21T22:15:01Z</time>
      </trkpt>
      <trkpt lat="43.6963" lon="3.41507">
        <ele>124</ele>
        <time>2022-10-21T22:15:08Z</time>
      </trkpt>
      <trkpt lat="43.69642" lon="3.41434">
        <ele>124</ele>
        <time>2022-10-21T22:15:20Z</time>
      </trkpt>
      <trkpt lat="43.69624" lon="3.41387">
        <ele>121</ele>
        <time>2022-10-21T22:15:29Z</time>
      </trkpt>
      <trkpt lat="43.69646" lon="3.41276">
        <ele>120</ele>
        <time>2022-10-21T22:15:49Z</time>
      </trkpt>
      <trkpt lat="43.69599" lon="3.4125">
        <ele>119</ele>
        <time>2022-10-21T22:16:01Z</time>
      </trkpt>
      <trkpt lat="43.69559" lon="3.41216">
        <ele>118</ele>
        <time>2022-10-21T22:16:12Z</time>
      </trkpt>
      <trkpt lat="43.69456" lon="3.41228">
        <ele>113</ele>
        <time>2022-10-21T22:16:36Z</time>
      </trkpt>
      <trkpt lat="43.69394" lon="3.41177">
        <ele>110</ele>
        <time>2022-10-21T22:16:53Z</time>
      </trkpt>
      <trkpt lat="43.69338" lon="3.41181">
        <ele>108</ele>
        <time>2022-10-21T22:17:06Z</time>
      </trkpt>
      <trkpt lat="43.69258" lon="3.41138">
        <ele>105</ele>
        <time>2022-10-21T22:17:26Z</time>
      </trkpt>
      <trkpt lat="43.69134" lon="3.41143">
        <ele>101</ele>
        <time>2022-10-21T22:17:55Z</time>
      </trkpt>
      <trkpt lat="43.69047" lon="3.41241">
        <ele>98</ele>
        <time>2022-10-21T22:18:21Z</time>
      </trkpt>
      <trkpt lat="43.68963" lon="3.41267">
        <ele>99</ele>
        <time>2022-10-21T22:18:41Z</time>
      </trkpt>
      <trkpt lat="43.68895" lon="3.41306">
        <ele>100</ele>
        <time>2022-10-21T22:18:58Z</time>
      </trkpt>
      <trkpt lat="43.68842" lon="3.41319">
        <ele>101</ele>
        <time>2022-10-21T22:19:11Z</time>
      </trkpt>
      <trkpt lat="43.68798" lon="3.41452">
        <ele>99</ele>
        <time>2022-10-21T22:19:35Z</time>
      </trkpt>
      <trkpt lat="43.68724" lon="3.41593">
        <ele>97</ele>
        <time>2022-10-21T22:20:05Z</time>
      </trkpt>
      <trkpt lat="43.68876" lon="3.41507">
        <ele>109</ele>
        <time>2022-10-21T22:20:43Z</time>
      </trkpt>
      <trkpt lat="43.6891" lon="3.41555">
        <ele>120</ele>
        <time>2022-10-21T22:20:55Z</time>
      </trkpt>
      <trkpt lat="43.68879" lon="3.41598">
        <ele>120</ele>
        <time>2022-10-21T22:21:05Z</time>
      </trkpt>
      <trkpt lat="43.69078" lon="3.41649">
        <ele>150</ele>
        <time>2022-10-21T22:21:52Z</time>
      </trkpt>
      <trkpt lat="43.69183" lon="3.41799">
        <ele>158</ele>
        <time>2022-10-21T22:22:27Z</time>
      </trkpt>
      <trkpt lat="43.69276" lon="3.41911">
        <ele>159</ele>
        <time>2022-10-21T22:22:56Z</time>
      </trkpt>
      <trkpt lat="43.69314" lon="3.41791">
        <ele>160</ele>
        <time>2022-10-21T22:23:18Z</time>
      </trkpt>
      <trkpt lat="43.6941" lon="3.41937">
        <ele>164</ele>
        <time>2022-10-21T22:23:52Z</time>
      </trkpt>
      <trkpt lat="43.69549" lon="3.42001">
        <ele>158</ele>
        <time>2022-10-21T22:24:26Z</time>
      </trkpt>
      <trkpt lat="43.69608" lon="3.42117">
        <ele>169</ele>
        <time>2022-10-21T22:24:50Z</time>
      </trkpt>
      <trkpt lat="43.69698" lon="3.42216">
        <ele>172</ele>
        <time>2022-10-21T22:25:17Z</time>
      </trkpt>
      <trkpt lat="43.69723" lon="3.42323">
        <ele>173</ele>
        <time>2022-10-21T22:25:36Z</time>
      </trkpt>
      <trkpt lat="43.69763" lon="3.42533">
        <ele>176</ele>
        <time>2022-10-21T22:26:12Z</time>
      </trkpt>
      <trkpt lat="43.6981" lon="3.42636">
        <ele>181</ele>
        <time>2022-10-21T22:26:33Z</time>
      </trkpt>
      <trkpt lat="43.69844" lon="3.42726">
        <ele>181</ele>
        <time>2022-10-21T22:26:50Z</time>
      </trkpt>
      <trkpt lat="43.69891" lon="3.42864">
        <ele>178</ele>
        <time>2022-10-21T22:27:16Z</time>
      </trkpt>
      <trkpt lat="43.69981" lon="3.43018">
        <ele>169</ele>
        <time>2022-10-21T22:27:49Z</time>
      </trkpt>
      <trkpt lat="43.70071" lon="3.43104">
        <ele>169</ele>
        <time>2022-10-21T22:28:15Z</time>
      </trkpt>
      <trkpt lat="43.70223" lon="3.43082">
        <ele>166</ele>
        <time>2022-10-21T22:28:50Z</time>
      </trkpt>
      <trkpt lat="43.70393" lon="3.42984">
        <ele>156</ele>
        <time>2022-10-21T22:29:33Z</time>
      </trkpt>
      <trkpt lat="43.70458" lon="3.43147">
        <ele>162</ele>
        <time>2022-10-21T22:30:05Z</time>
      </trkpt>
      <trkpt lat="43.70527" lon="3.43246">
        <ele>165</ele>
        <time>2022-10-21T22:30:28Z</time>
      </trkpt>
      <trkpt lat="43.70654" lon="3.4334">
        <ele>174</ele>
        <time>2022-10-21T22:31:02Z</time>
      </trkpt>
      <trkpt lat="43.70741" lon="3.43593">
        <ele>184</ele>
        <time>2022-10-21T22:31:49Z</time>
      </trkpt>
      <trkpt lat="43.70766" lon="3.4376">
        <ele>186</ele>
        <time>2022-10-21T22:32:18Z</time>
      </trkpt>
      <trkpt lat="43.70874" lon="3.43799">
        <ele>186</ele>
        <time>2022-10-21T22:32:44Z</time>
      </trkpt>
      <trkpt lat="43.71014" lon="3.43859">
        <ele>187</ele>
        <time>2022-10-21T22:33:18Z</time>
      </trkpt>
      <trkpt lat="43.71116" lon="3.43791">
        <ele>189</ele>
        <time>2022-10-21T22:33:45Z</time>
      </trkpt>
      <trkpt lat="43.71299" lon="3.43778">
        <ele>197</ele>
        <time>2022-10-21T22:34:27Z</time>
      </trkpt>
      <trkpt lat="43.71507" lon="3.43885">
        <ele>215</ele>
        <time>2022-10-21T22:35:19Z</time>
      </trkpt>
      <trkpt lat="43.7173" lon="3.43997">
        <ele>232</ele>
        <time>2022-10-21T22:36:15Z</time>
      </trkpt>
      <trkpt lat="43.71758" lon="3.43928">
        <ele>230</ele>
        <time>2022-10-21T22:36:28Z</time>
      </trkpt>
      <trkpt lat="43.71746" lon="3.43846">
        <ele>225</ele>
        <time>2022-10-21T22:36:42Z</time>
      </trkpt>
      <trkpt lat="43.71932" lon="3.43799">
        <ele>233</ele>
        <time>2022-10-21T22:37:26Z</time>
      </trkpt>
      <trkpt lat="43.71932" lon="3.43752">
        <ele>228</ele>
        <time>2022-10-21T22:37:34Z</time>
      </trkpt>
      <trkpt lat="43.71997" lon="3.43821">
        <ele>236</ele>
        <time>2022-10-21T22:37:53Z</time>
      </trkpt>
      <trkpt lat="43.72003" lon="3.4364">
        <ele>229</ele>
        <time>2022-10-21T22:38:24Z</time>
      </trkpt>
      <trkpt lat="43.71988" lon="3.43585">
        <ele>226</ele>
        <time>2022-10-21T22:38:34Z</time>
      </trkpt>
      <trkpt lat="43.72034" lon="3.43482">
        <ele>218</ele>
        <time>2022-10-21T22:38:54Z</time>
      </trkpt>
      <trkpt lat="43.72034" lon="3.43426">
        <ele>214</ele>
        <time>2022-10-21T22:39:04Z</time>
      </trkpt>
      <trkpt lat="43.72087" lon="3.43361">
        <ele>213</ele>
        <time>2022-10-21T22:39:20Z</time>
      </trkpt>
      <trkpt lat="43.72062" lon="3.43263">
        <ele>209</ele>
        <time>2022-10-21T22:39:38Z</time>
      </trkpt>
      <trkpt lat="43.72019" lon="3.43074">
        <ele>206</ele>
        <time>2022-10-21T22:40:11Z</time>
      </trkpt>
      <trkpt lat="43.71991" lon="3.42997">
        <ele>198</ele>
        <time>2022-10-21T22:40:26Z</time>
      </trkpt>
      <trkpt lat="43.71923" lon="3.42975">
        <ele>194</ele>
        <time>2022-10-21T22:40:42Z</time>
      </trkpt>
      <trkpt lat="43.7187" lon="3.42915">
        <ele>181</ele>
        <time>2022-10-21T22:40:58Z</time>
      </trkpt>
      <trkpt lat="43.7178" lon="3.42971">
        <ele>179</ele>
        <time>2022-10-21T22:41:21Z</time>
      </trkpt>
      <trkpt lat="43.71743" lon="3.42885">
        <ele>170</ele>
        <time>2022-10-21T22:41:38Z</time>
      </trkpt>
      <trkpt lat="43.71709" lon="3.42799">
        <ele>168</ele>
        <time>2022-10-21T22:41:54Z</time>
      </trkpt>
      <trkpt lat="43.71693" lon="3.42636">
        <ele>163</ele>
        <time>2022-10-21T22:42:22Z</time>
      </trkpt>
      <trkpt lat="43.71712" lon="3.4258">
        <ele>162</ele>
        <time>2022-10-21T22:42:33Z</time>
      </trkpt>
      <trkpt lat="43.71901" lon="3.42692">
        <ele>174</ele>
        <time>2022-10-21T22:43:21Z</time>
      </trkpt>
      <trkpt lat="43.72003" lon="3.42623">
        <ele>178</ele>
        <time>2022-10-21T22:43:47Z</time>
      </trkpt>
      <trkpt lat="43.72264" lon="3.42632">
        <ele>200</ele>
        <time>2022-10-21T22:44:48Z</time>
      </trkpt>
      <trkpt lat="43.72515" lon="3.42683">
        <ele>196</ele>
        <time>2022-10-21T22:45:47Z</time>
      </trkpt>
      <trkpt lat="43.72611" lon="3.42615">
        <ele>188</ele>
        <time>2022-10-21T22:46:13Z</time>
      </trkpt>
      <trkpt lat="43.72741" lon="3.427">
        <ele>202</ele>
        <time>2022-10-21T22:46:46Z</time>
      </trkpt>
      <trkpt lat="43.72912" lon="3.42688">
        <ele>201</ele>
        <time>2022-10-21T22:47:26Z</time>
      </trkpt>
      <trkpt lat="43.72924" lon="3.4264">
        <ele>199</ele>
        <time>2022-10-21T22:47:35Z</time>
      </trkpt>
      <trkpt lat="43.73101" lon="3.42653">
        <ele>206</ele>
        <time>2022-10-21T22:48:16Z</time>
      </trkpt>
      <trkpt lat="43.733" lon="3.42791">
        <ele>215</ele>
        <time>2022-10-21T22:49:08Z</time>
      </trkpt>
      <trkpt lat="43.73377" lon="3.42864">
        <ele>216</ele>
        <time>2022-10-21T22:49:30Z</time>
      </trkpt>
      <trkpt lat="43.73622" lon="3.42894">
        <ele>229</ele>
        <time>2022-10-21T22:50:27Z</time>
      </trkpt>
      <trkpt lat="43.73665" lon="3.42941">
        <ele>227</ele>
        <time>2022-10-21T22:50:40Z</time>
      </trkpt>
      <trkpt lat="43.73861" lon="3.42967">
        <ele>232</ele>
        <time>2022-10-21T22:51:26Z</time>
      </trkpt>
      <trkpt lat="43.74019" lon="3.42962">
        <ele>244</ele>
        <time>2022-10-21T22:52:03Z</time>
      </trkpt>
      <trkpt lat="43.74202" lon="3.43057">
        <ele>243</ele>
        <time>2022-10-21T22:52:49Z</time>
      </trkpt>
      <trkpt lat="43.74425" lon="3.43104">
        <ele>249</ele>
        <time>2022-10-21T22:53:41Z</time>
      </trkpt>
      <trkpt lat="43.74568" lon="3.43151">
        <ele>255</ele>
        <time>2022-10-21T22:54:16Z</time>
      </trkpt>
      <trkpt lat="43.74806" lon="3.43207">
        <ele>270</ele>
        <time>2022-10-21T22:55:12Z</time>
      </trkpt>
      <trkpt lat="43.74965" lon="3.43241">
        <ele>277</ele>
        <time>2022-10-21T22:55:50Z</time>
      </trkpt>
      <trkpt lat="43.75104" lon="3.43331">
        <ele>285</ele>
        <time>2022-10-21T22:56:25Z</time>
      </trkpt>
      <trkpt lat="43.7524" lon="3.43391">
        <ele>289</ele>
        <time>2022-10-21T22:56:59Z</time>
      </trkpt>
      <trkpt lat="43.75287" lon="3.43597">
        <ele>303</ele>
        <time>2022-10-21T22:57:35Z</time>
      </trkpt>
      <trkpt lat="43.75324" lon="3.43688">
        <ele>309</ele>
        <time>2022-10-21T22:57:53Z</time>
      </trkpt>
      <trkpt lat="43.75464" lon="3.43632">
        <ele>313</ele>
        <time>2022-10-21T22:58:27Z</time>
      </trkpt>
      <trkpt lat="43.75495" lon="3.43679">
        <ele>319</ele>
        <time>2022-10-21T22:58:38Z</time>
      </trkpt>
      <trkpt lat="43.75445" lon="3.43799">
        <ele>326</ele>
        <time>2022-10-21T22:59:01Z</time>
      </trkpt>
      <trkpt lat="43.75423" lon="3.43924">
        <ele>332</ele>
        <time>2022-10-21T22:59:23Z</time>
      </trkpt>
      <trkpt lat="43.75433" lon="3.44005">
        <ele>339</ele>
        <time>2022-10-21T22:59:37Z</time>
      </trkpt>
      <trkpt lat="43.75538" lon="3.43812">
        <ele>349</ele>
        <time>2022-10-21T23:00:17Z</time>
      </trkpt>
      <trkpt lat="43.75671" lon="3.43799">
        <ele>361</ele>
        <time>2022-10-21T23:00:48Z</time>
      </trkpt>
      <trkpt lat="43.75808" lon="3.43821">
        <ele>368</ele>
        <time>2022-10-21T23:01:21Z</time>
      </trkpt>
      <trkpt lat="43.75978" lon="3.43932">
        <ele>397</ele>
        <time>2022-10-21T23:02:05Z</time>
      </trkpt>
      <trkpt lat="43.75851" lon="3.43915">
        <ele>395</ele>
        <time>2022-10-21T23:02:34Z</time>
      </trkpt>
      <trkpt lat="43.75764" lon="3.43917">
        <ele>400</ele>
        <time>2022-10-21T23:02:55Z</time>
      </trkpt>
      <trkpt lat="43.75636" lon="3.4396">
        <ele>402</ele>
        <time>2022-10-21T23:03:25Z</time>
      </trkpt>
      <trkpt lat="43.75789" lon="3.43975">
        <ele>417</ele>
        <time>2022-10-21T23:04:01Z</time>
      </trkpt>
      <trkpt lat="43.7569" lon="3.43988">
        <ele>421</ele>
        <time>2022-10-21T23:04:24Z</time>
      </trkpt>
      <trkpt lat="43.75656" lon="3.44042">
        <ele>427</ele>
        <time>2022-10-21T23:04:37Z</time>
      </trkpt>
      <trkpt lat="43.75693" lon="3.44121">
        <ele>443</ele>
        <time>2022-10-21T23:04:52Z</time>
      </trkpt>
      <trkpt lat="43.7571" lon="3.44224">
        <ele>455</ele>
        <time>2022-10-21T23:05:10Z</time>
      </trkpt>
      <trkpt lat="43.75729" lon="3.44329">
        <ele>457</ele>
        <time>2022-10-21T23:05:29Z</time>
      </trkpt>
      <trkpt lat="43.75781" lon="3.44381">
        <ele>471</ele>
        <time>2022-10-21T23:05:44Z</time>
      </trkpt>
      <trkpt lat="43.75825" lon="3.44632">
        <ele>480</ele>
        <time>2022-10-21T23:06:27Z</time>
      </trkpt>
      <trkpt lat="43.75865" lon="3.44569">
        <ele>495</ele>
        <time>2022-10-21T23:06:41Z</time>
      </trkpt>
      <trkpt lat="43.75912" lon="3.44391">
        <ele>504</ele>
        <time>2022-10-21T23:07:13Z</time>
      </trkpt>
      <trkpt lat="43.75964" lon="3.44338">
        <ele>503</ele>
        <time>2022-10-21T23:07:28Z</time>
      </trkpt>
      <trkpt lat="43.76039" lon="3.44391">
        <ele>517</ele>
        <time>2022-10-21T23:07:48Z</time>
      </trkpt>
      <trkpt lat="43.7618" lon="3.44451">
        <ele>533</ele>
        <time>2022-10-21T23:08:22Z</time>
      </trkpt>
      <trkpt lat="43.76252" lon="3.4443">
        <ele>539</ele>
        <time>2022-10-21T23:08:40Z</time>
      </trkpt>
      <trkpt lat="43.76347" lon="3.44301">
        <ele>540</ele>
        <time>2022-10-21T23:09:11Z</time>
      </trkpt>
      <trkpt lat="43.76353" lon="3.44235">
        <ele>530</ele>
        <time>2022-10-21T23:09:22Z</time>
      </trkpt>
      <trkpt lat="43.76424" lon="3.44213">
        <ele>539</ele>
        <time>2022-10-21T23:09:39Z</time>
      </trkpt>
      <trkpt lat="43.76424" lon="3.44112">
        <ele>531</ele>
        <time>2022-10-21T23:09:56Z</time>
      </trkpt>
      <trkpt lat="43.76428" lon="3.44012">
        <ele>527</ele>
        <time>2022-10-21T23:10:13Z</time>
      </trkpt>
      <trkpt lat="43.76437" lon="3.4393">
        <ele>530</ele>
        <time>2022-10-21T23:10:27Z</time>
      </trkpt>
      <trkpt lat="43.76462" lon="3.43773">
        <ele>530</ele>
        <time>2022-10-21T23:10:54Z</time>
      </trkpt>
      <trkpt lat="43.76442" lon="3.43713">
        <ele>523</ele>
        <time>2022-10-21T23:11:05Z</time>
      </trkpt>
      <trkpt lat="43.76364" lon="3.43597">
        <ele>502</ele>
        <time>2022-10-21T23:11:32Z</time>
      </trkpt>
      <trkpt lat="43.76446" lon="3.43589">
        <ele>506</ele>
        <time>2022-10-21T23:11:51Z</time>
      </trkpt>
      <trkpt lat="43.76499" lon="3.43557">
        <ele>501</ele>
        <time>2022-10-21T23:12:04Z</time>
      </trkpt>
      <trkpt lat="43.76547" lon="3.43509">
        <ele>493</ele>
        <time>2022-10-21T23:12:18Z</time>
      </trkpt>
      <trkpt lat="43.76655" lon="3.43469">
        <ele>494</ele>
        <time>2022-10-21T23:12:44Z</time>
      </trkpt>
      <trkpt lat="43.76632" lon="3.43336">
        <ele>481</ele>
        <time>2022-10-21T23:13:07Z</time>
      </trkpt>
      <trkpt lat="43.76598" lon="3.4334">
        <ele>472</ele>
        <time>2022-10-21T23:13:15Z</time>
      </trkpt>
      <trkpt lat="43.76584" lon="3.43301">
        <ele>469</ele>
        <time>2022-10-21T23:13:23Z</time>
      </trkpt>
      <trkpt lat="43.76534" lon="3.43284">
        <ele>461</ele>
        <time>2022-10-21T23:13:35Z</time>
      </trkpt>
      <trkpt lat="43.76494" lon="3.43179">
        <ele>460</ele>
        <time>2022-10-21T23:13:55Z</time>
      </trkpt>
      <trkpt lat="43.76466" lon="3.43097">
        <ele>455</ele>
        <time>2022-10-21T23:14:10Z</time>
      </trkpt>
      <trkpt lat="43.76434" lon="3.43022">
        <ele>447</ele>
        <time>2022-10-21T23:14:25Z</time>
      </trkpt>
      <trkpt lat="43.76462" lon="3.42969">
        <ele>457</ele>
        <time>2022-10-21T23:14:36Z</time>
      </trkpt>
      <trkpt lat="43.76435" lon="3.42956">
        <ele>453</ele>
        <time>2022-10-21T23:14:43Z</time>
      </trkpt>
      <trkpt lat="43.76403" lon="3.42934">
        <ele>450</ele>
        <time>2022-10-21T23:14:51Z</time>
      </trkpt>
      <trkpt lat="43.76314" lon="3.42881">
        <ele>431</ele>
        <time>2022-10-21T23:15:14Z</time>
      </trkpt>
      <trkpt lat="43.76314" lon="3.42735">
        <ele>437</ele>
        <time>2022-10-21T23:15:38Z</time>
      </trkpt>
      <trkpt lat="43.76254" lon="3.4266">
        <ele>441</ele>
        <time>2022-10-21T23:15:57Z</time>
      </trkpt>
      <trkpt lat="43.76194" lon="3.42651">
        <ele>439</ele>
        <time>2022-10-21T23:16:11Z</time>
      </trkpt>
      <trkpt lat="43.76146" lon="3.42615">
        <ele>445</ele>
        <time>2022-10-21T23:16:24Z</time>
      </trkpt>
      <trkpt lat="43.76093" lon="3.42613">
        <ele>446</ele>
        <time>2022-10-21T23:16:36Z</time>
      </trkpt>
      <trkpt lat="43.76049" lon="3.42634">
        <ele>444</ele>
        <time>2022-10-21T23:16:47Z</time>
      </trkpt>
      <trkpt lat="43.76018" lon="3.42621">
        <ele>448</ele>
        <time>2022-10-21T23:16:55Z</time>
      </trkpt>
      <trkpt lat="43.75984" lon="3.42589">
        <ele>451</ele>
        <time>2022-10-21T23:17:04Z</time>
      </trkpt>
      <trkpt lat="43.75977" lon="3.42467">
        <ele>462</ele>
        <time>2022-10-21T23:17:25Z</time>
      </trkpt>
      <trkpt lat="43.75939" lon="3.424">
        <ele>464</ele>
        <time>2022-10-21T23:17:39Z</time>
      </trkpt>
      <trkpt lat="43.75891" lon="3.42342">
        <ele>460</ele>
        <time>2022-10-21T23:17:54Z</time>
      </trkpt>
      <trkpt lat="43.7587" lon="3.42306">
        <ele>459</ele>
        <time>2022-10-21T23:18:02Z</time>
      </trkpt>
      <trkpt lat="43.75814" lon="3.42291">
        <ele>452</ele>
        <time>2022-10-21T23:18:15Z</time>
      </trkpt>
      <trkpt lat="43.75702" lon="3.42151">
        <ele>442</ele>
        <time>2022-10-21T23:18:51Z</time>
      </trkpt>
      <trkpt lat="43.75674" lon="3.42089">
        <ele>436</ele>
        <time>2022-10-21T23:19:03Z</time>
      </trkpt>
      <trkpt lat="43.75642" lon="3.42037">
        <ele>433</ele>
        <time>2022-10-21T23:19:14Z</time>
      </trkpt>
      <trkpt lat="43.75566" lon="3.41964">
        <ele>427</ele>
        <time>2022-10-21T23:19:36Z</time>
      </trkpt>
      <trkpt lat="43.75501" lon="3.41932">
        <ele>411</ele>
        <time>2022-10-21T23:19:52Z</time>
      </trkpt>
      <trkpt lat="43.75451" lon="3.41877">
        <ele>406</ele>
        <time>2022-10-21T23:20:07Z</time>
      </trkpt>
      <trkpt lat="43.75412" lon="3.41823">
        <ele>401</ele>
        <time>2022-10-21T23:20:20Z</time>
      </trkpt>
      <trkpt lat="43.75366" lon="3.41844">
        <ele>385</ele>
        <time>2022-10-21T23:20:31Z</time>
      </trkpt>
      <trkpt lat="43.75341" lon="3.41844">
        <ele>378</ele>
        <time>2022-10-21T23:20:37Z</time>
      </trkpt>
      <trkpt lat="43.75316" lon="3.41913">
        <ele>371</ele>
        <time>2022-10-21T23:20:50Z</time>
      </trkpt>
      <trkpt lat="43.75326" lon="3.41967">
        <ele>369</ele>
        <time>2022-10-21T23:20:59Z</time>
      </trkpt>
      <trkpt lat="43.75371" lon="3.42048">
        <ele>364</ele>
        <time>2022-10-21T23:21:17Z</time>
      </trkpt>
      <trkpt lat="43.75394" lon="3.42104">
        <ele>357</ele>
        <time>2022-10-21T23:21:28Z</time>
      </trkpt>
      <trkpt lat="43.75481" lon="3.42132">
        <ele>365</ele>
        <time>2022-10-21T23:21:48Z</time>
      </trkpt>
      <trkpt lat="43.7549" lon="3.42166">
        <ele>360</ele>
        <time>2022-10-21T23:21:55Z</time>
      </trkpt>
      <trkpt lat="43.7547" lon="3.42194">
        <ele>355</ele>
        <time>2022-10-21T23:22:01Z</time>
      </trkpt>
      <trkpt lat="43.75461" lon="3.42441">
        <ele>337</ele>
        <time>2022-10-21T23:22:43Z</time>
      </trkpt>
      <trkpt lat="43.75439" lon="3.42441">
        <ele>332</ele>
        <time>2022-10-21T23:22:48Z</time>
      </trkpt>
      <trkpt lat="43.75358" lon="3.4237">
        <ele>322</ele>
        <time>2022-10-21T23:23:10Z</time>
      </trkpt>
      <trkpt lat="43.75349" lon="3.42314">
        <ele>325</ele>
        <time>2022-10-21T23:23:20Z</time>
      </trkpt>
      <trkpt lat="43.75287" lon="3.42304">
        <ele>319</ele>
        <time>2022-10-21T23:23:35Z</time>
      </trkpt>
      <trkpt lat="43.75248" lon="3.42258">
        <ele>321</ele>
        <time>2022-10-21T23:23:47Z</time>
      </trkpt>
      <trkpt lat="43.75222" lon="3.42233">
        <ele>323</ele>
        <time>2022-10-21T23:23:54Z</time>
      </trkpt>
      <trkpt lat="43.75163" lon="3.42175">
        <ele>325</ele>
        <time>2022-10-21T23:24:11Z</time>
      </trkpt>
      <trkpt lat="43.75144" lon="3.42029">
        <ele>328</ele>
        <time>2022-10-21T23:24:36Z</time>
      </trkpt>
      <trkpt lat="43.75164" lon="3.41932">
        <ele>336</ele>
        <time>2022-10-21T23:24:53Z</time>
      </trkpt>
      <trkpt lat="43.7514" lon="3.41913">
        <ele>337</ele>
        <time>2022-10-21T23:24:59Z</time>
      </trkpt>
      <trkpt lat="43.75023" lon="3.41913">
        <ele>335</ele>
        <time>2022-10-21T23:25:27Z</time>
      </trkpt>
      <trkpt lat="43.74983" lon="3.41849">
        <ele>337</ele>
        <time>2022-10-21T23:25:41Z</time>
      </trkpt>
      <trkpt lat="43.7496" lon="3.41776">
        <ele>341</ele>
        <time>2022-10-21T23:25:54Z</time>
      </trkpt>
      <trkpt lat="43.74898" lon="3.41705">
        <ele>341</ele>
        <time>2022-10-21T23:26:13Z</time>
      </trkpt>
      <trkpt lat="43.74872" lon="3.41651">
        <ele>343</ele>
        <time>2022-10-21T23:26:24Z</time>
      </trkpt>
      <trkpt lat="43.74816" lon="3.41568">
        <ele>341</ele>
        <time>2022-10-21T23:26:43Z</time>
      </trkpt>
      <trkpt lat="43.74802" lon="3.41492">
        <ele>348</ele>
        <time>2022-10-21T23:26:57Z</time>
      </trkpt>
      <trkpt lat="43.74771" lon="3.4143">
        <ele>350</ele>
        <time>2022-10-21T23:27:09Z</time>
      </trkpt>
      <trkpt lat="43.74696" lon="3.41407">
        <ele>347</ele>
        <time>2022-10-21T23:27:27Z</time>
      </trkpt>
      <trkpt lat="43.74622" lon="3.41314">
        <ele>349</ele>
        <time>2022-10-21T23:27:51Z</time>
      </trkpt>
      <trkpt lat="43.7461" lon="3.41271">
        <ele>352</ele>
        <time>2022-10-21T23:27:58Z</time>
      </trkpt>
      <trkpt lat="43.74569" lon="3.41235">
        <ele>352</ele>
        <time>2022-10-21T23:28:10Z</time>
      </trkpt>
      <trkpt lat="43.74498" lon="3.41173">
        <ele>353</ele>
        <time>2022-10-21T23:28:29Z</time>
      </trkpt>
      <trkpt lat="43.7447" lon="3.41087">
        <ele>354</ele>
        <time>2022-10-21T23:28:45Z</time>
      </trkpt>
      <trkpt lat="43.74456" lon="3.41033">
        <ele>355</ele>
        <time>2022-10-21T23:28:55Z</time>
      </trkpt>
      <trkpt lat="43.74422" lon="3.40939">
        <ele>358</ele>
        <time>2022-10-21T23:29:13Z</time>
      </trkpt>
      <trkpt lat="43.74399" lon="3.40889">
        <ele>358</ele>
        <time>2022-10-21T23:29:23Z</time>
      </trkpt>
      <trkpt lat="43.74383" lon="3.40832">
        <ele>358</ele>
        <time>2022-10-21T23:29:33Z</time>
      </trkpt>
      <trkpt lat="43.74375" lon="3.40771">
        <ele>357</ele>
        <time>2022-10-21T23:29:43Z</time>
      </trkpt>
      <trkpt lat="43.74408" lon="3.40694">
        <ele>364</ele>
        <time>2022-10-21T23:29:59Z</time>
      </trkpt>
      <trkpt lat="43.74382" lon="3.40664">
        <ele>363</ele>
        <time>2022-10-21T23:30:06Z</time>
      </trkpt>
      <trkpt lat="43.743" lon="3.40668">
        <ele>358</ele>
        <time>2022-10-21T23:30:26Z</time>
      </trkpt>
      <trkpt lat="43.74255" lon="3.40651">
        <ele>358</ele>
        <time>2022-10-21T23:30:36Z</time>
      </trkpt>
      <trkpt lat="43.74172" lon="3.40611">
        <ele>358</ele>
        <time>2022-10-21T23:30:57Z</time>
      </trkpt>
      <trkpt lat="43.74131" lon="3.40505">
        <ele>360</ele>
        <time>2022-10-21T23:31:17Z</time>
      </trkpt>
      <trkpt lat="43.74002" lon="3.40604">
        <ele>359</ele>
        <time>2022-10-21T23:31:52Z</time>
      </trkpt>
      <trkpt lat="43.73865" lon="3.40413">
        <ele>371</ele>
        <time>2022-10-21T23:32:37Z</time>
      </trkpt>
      <trkpt lat="43.73838" lon="3.40359">
        <ele>373</ele>
        <time>2022-10-21T23:32:48Z</time>
      </trkpt>
      <trkpt lat="43.73799" lon="3.40289">
        <ele>376</ele>
        <time>2022-10-21T23:33:03Z</time>
      </trkpt>
      <trkpt lat="43.73814" lon="3.40164">
        <ele>370</ele>
        <time>2022-10-21T23:33:25Z</time>
      </trkpt>
      <trkpt lat="43.7378" lon="3.40076">
        <ele>361</ele>
        <time>2022-10-21T23:33:41Z</time>
      </trkpt>
      <trkpt lat="43.73762" lon="3.40072">
        <ele>361</ele>
        <time>2022-10-21T23:33:46Z</time>
      </trkpt>
      <trkpt lat="43.73714" lon="3.40136">
        <ele>361</ele>
        <time>2022-10-21T23:34:01Z</time>
      </trkpt>
      <trkpt lat="43.73667" lon="3.40252">
        <ele>360</ele>
        <time>2022-10-21T23:34:24Z</time>
      </trkpt>
      <trkpt lat="43.7358" lon="3.40353">
        <ele>353</ele>
        <time>2022-10-21T23:34:50Z</time>
      </trkpt>
      <trkpt lat="43.73506" lon="3.4043">
        <ele>348</ele>
        <time>2022-10-21T23:35:12Z</time>
      </trkpt>
      <trkpt lat="43.73414" lon="3.4045">
        <ele>337</ele>
        <time>2022-10-21T23:35:34Z</time>
      </trkpt>
      <trkpt lat="43.7327" lon="3.40518">
        <ele>320</ele>
        <time>2022-10-21T23:36:09Z</time>
      </trkpt>
      <trkpt lat="43.73213" lon="3.40565">
        <ele>319</ele>
        <time>2022-10-21T23:36:25Z</time>
      </trkpt>
      <trkpt lat="43.73131" lon="3.40585">
        <ele>314</ele>
        <time>2022-10-21T23:36:44Z</time>
      </trkpt>
      <trkpt lat="43.73072" lon="3.40535">
        <ele>300</ele>
        <time>2022-10-21T23:37:00Z</time>
      </trkpt>
      <trkpt lat="43.73002" lon="3.40525">
        <ele>294</ele>
        <time>2022-10-21T23:37:17Z</time>
      </trkpt>
      <trkpt lat="43.72929" lon="3.40555">
        <ele>291</ele>
        <time>2022-10-21T23:37:34Z</time>
      </trkpt>
      <trkpt lat="43.72763" lon="3.40628">
        <ele>272</ele>
        <time>2022-10-21T23:38:15Z</time>
      </trkpt>
      <trkpt lat="43.72962" lon="3.40456">
        <ele>268</ele>
        <time>2022-10-21T23:39:10Z</time>
      </trkpt>
      <trkpt lat="43.72734" lon="3.4052">
        <ele>242</ele>
        <time>2022-10-21T23:40:04Z</time>
      </trkpt>
      <trkpt lat="43.72653" lon="3.40529">
        <ele>230</ele>
        <time>2022-10-21T23:40:23Z</time>
      </trkpt>
      <trkpt lat="43.72769" lon="3.40353">
        <ele>221</ele>
        <time>2022-10-21T23:41:03Z</time>
      </trkpt>
      <trkpt lat="43.72758" lon="3.4031">
        <ele>221</ele>
        <time>2022-10-21T23:41:11Z</time>
      </trkpt>
      <trkpt lat="43.72699" lon="3.40293">
        <ele>221</ele>
        <time>2022-10-21T23:41:25Z</time>
      </trkpt>
      <trkpt lat="43.72633" lon="3.40229">
        <ele>229</ele>
        <time>2022-10-21T23:41:44Z</time>
      </trkpt>
      <trkpt lat="43.72548" lon="3.40276">
        <ele>230</ele>
        <time>2022-10-21T23:42:05Z</time>
      </trkpt>
      <trkpt lat="43.72515" lon="3.40284">
        <ele>233</ele>
        <time>2022-10-21T23:42:13Z</time>
      </trkpt>
      <trkpt lat="43.72344" lon="3.40244">
        <ele>244</ele>
        <time>2022-10-21T23:42:54Z</time>
      </trkpt>
      <trkpt lat="43.72335" lon="3.40209">
        <ele>243</ele>
        <time>2022-10-21T23:43:00Z</time>
      </trkpt>
      <trkpt lat="43.72414" lon="3.39973">
        <ele>244</ele>
        <time>2022-10-21T23:43:44Z</time>
      </trkpt>
      <trkpt lat="43.72431" lon="3.39855">
        <ele>244</ele>
        <time>2022-10-21T23:44:04Z</time>
      </trkpt>
      <trkpt lat="43.72406" lon="3.39789">
        <ele>241</ele>
        <time>2022-10-21T23:44:17Z</time>
      </trkpt>
      <trkpt lat="43.7238" lon="3.39782">
        <ele>240</ele>
        <time>2022-10-21T23:44:23Z</time>
      </trkpt>
      <trkpt lat="43.72352" lon="3.39759">
        <ele>242</ele>
        <time>2022-10-21T23:44:30Z</time>
      </trkpt>
      <trkpt lat="43.72268" lon="3.39761">
        <ele>250</ele>
        <time>2022-10-21T23:44:50Z</time>
      </trkpt>
      <trkpt lat="43.72313" lon="3.39555">
        <ele>265</ele>
        <time>2022-10-21T23:45:26Z</time>
      </trkpt>
      <trkpt lat="43.72338" lon="3.3951">
        <ele>265</ele>
        <time>2022-10-21T23:45:36Z</time>
      </trkpt>
      <trkpt lat="43.72338" lon="3.39473">
        <ele>268</ele>
        <time>2022-10-21T23:45:42Z</time>
      </trkpt>
      <trkpt lat="43.72298" lon="3.39452">
        <ele>263</ele>
        <time>2022-10-21T23:45:52Z</time>
      </trkpt>
      <trkpt lat="43.7225" lon="3.39355">
        <ele>262</ele>
        <time>2022-10-21T23:46:12Z</time>
      </trkpt>
      <trkpt lat="43.72064" lon="3.39205">
        <ele>254</ele>
        <time>2022-10-21T23:47:02Z</time>
      </trkpt>
      <trkpt lat="43.71954" lon="3.39257">
        <ele>239</ele>
        <time>2022-10-21T23:47:29Z</time>
      </trkpt>
      <trkpt lat="43.71895" lon="3.39302">
        <ele>234</ele>
        <time>2022-10-21T23:47:45Z</time>
      </trkpt>
      <trkpt lat="43.71833" lon="3.39319">
        <ele>230</ele>
        <time>2022-10-21T23:48:00Z</time>
      </trkpt>
      <trkpt lat="43.71743" lon="3.39319">
        <ele>221</ele>
        <time>2022-10-21T23:48:21Z</time>
      </trkpt>
      <trkpt lat="43.71693" lon="3.39319">
        <ele>218</ele>
        <time>2022-10-21T23:48:33Z</time>
      </trkpt>
      <trkpt lat="43.71581" lon="3.39355">
        <ele>210</ele>
        <time>2022-10-21T23:49:00Z</time>
      </trkpt>
      <trkpt lat="43.71383" lon="3.3943">
        <ele>209</ele>
        <time>2022-10-21T23:49:47Z</time>
      </trkpt>
      <trkpt lat="43.71305" lon="3.39553">
        <ele>199</ele>
        <time>2022-10-21T23:50:15Z</time>
      </trkpt>
      <trkpt lat="43.71243" lon="3.39628">
        <ele>191</ele>
        <time>2022-10-21T23:50:34Z</time>
      </trkpt>
      <trkpt lat="43.71139" lon="3.39684">
        <ele>179</ele>
        <time>2022-10-21T23:51:00Z</time>
      </trkpt>
      <trkpt lat="43.71085" lon="3.39692">
        <ele>173</ele>
        <time>2022-10-21T23:51:13Z</time>
      </trkpt>
      <trkpt lat="43.70928" lon="3.39563">
        <ele>171</ele>
        <time>2022-10-21T23:51:56Z</time>
      </trkpt>
      <trkpt lat="43.7088" lon="3.3951">
        <ele>169</ele>
        <time>2022-10-21T23:52:10Z</time>
      </trkpt>
      <trkpt lat="43.70821" lon="3.39488">
        <ele>164</ele>
        <time>2022-10-21T23:52:24Z</time>
      </trkpt>
      <trkpt lat="43.70756" lon="3.39508">
        <ele>160</ele>
        <time>2022-10-21T23:52:40Z</time>
      </trkpt>
      <trkpt lat="43.70696" lon="3.3954">
        <ele>156</ele>
        <time>2022-10-21T23:52:55Z</time>
      </trkpt>
      <trkpt lat="43.70643" lon="3.39598">
        <ele>153</ele>
        <time>2022-10-21T23:53:11Z</time>
      </trkpt>
      <trkpt lat="43.70551" lon="3.39703">
        <ele>143</ele>
        <time>2022-10-21T23:53:39Z</time>
      </trkpt>
      <trkpt lat="43.70475" lon="3.39834">
        <ele>136</ele>
        <time>2022-10-21T23:54:07Z</time>
      </trkpt>
      <trkpt lat="43.70444" lon="3.39855">
        <ele>138</ele>
        <time>2022-10-21T23:54:15Z</time>
      </trkpt>
      <trkpt lat="43.70348" lon="3.399">
        <ele>137</ele>
        <time>2022-10-21T23:54:39Z</time>
      </trkpt>
      <trkpt lat="43.70212" lon="3.40005">
        <ele>139</ele>
        <time>2022-10-21T23:55:15Z</time>
      </trkpt>
      <trkpt lat="43.7015" lon="3.40046">
        <ele>138</ele>
        <time>2022-10-21T23:55:31Z</time>
      </trkpt>
      <trkpt lat="43.69984" lon="3.40173">
        <ele>138</ele>
        <time>2022-10-21T23:56:15Z</time>
      </trkpt>
      <trkpt lat="43.69968" lon="3.40252">
        <ele>142</ele>
        <time>2022-10-21T23:56:29Z</time>
      </trkpt>
      <trkpt lat="43.69945" lon="3.40366">
        <ele>145</ele>
        <time>2022-10-21T23:56:49Z</time>
      </trkpt>
      <trkpt lat="43.69936" lon="3.40557">
        <ele>149</ele>
        <time>2022-10-21T23:57:21Z</time>
      </trkpt>
      <trkpt lat="43.69874" lon="3.40786">
        <ele>132</ele>
        <time>2022-10-21T23:58:03Z</time>
      </trkpt>
      <trkpt lat="43.6988" lon="3.40814">
        <ele>131</ele>
        <time>2022-10-21T23:58:08Z</time>
      </trkpt>
      <trkpt lat="43.69912" lon="3.40857">
        <ele>130</ele>
        <time>2022-10-21T23:58:18Z</time>
      </trkpt>
      <trkpt lat="43.69948" lon="3.40982">
        <ele>126</ele>
        <time>2022-10-21T23:58:41Z</time>
      </trkpt>
      <trkpt lat="43.69982" lon="3.4102">
        <ele>125</ele>
        <time>2022-10-21T23:58:51Z</time>
      </trkpt>
      <trkpt lat="43.70013" lon="3.4107">
        <ele>123</ele>
        <time>2022-10-21T23:59:02Z</time>
      </trkpt>
      <trkpt lat="43.70054" lon="3.41104">
        <ele>125</ele>
        <time>2022-10-21T23:59:13Z</time>
      </trkpt>
      <trkpt lat="43.70114" lon="3.41117">
        <ele>127</ele>
        <time>2022-10-21T23:59:28Z</time>
      </trkpt>
      <trkpt lat="43.70206" lon="3.41102">
        <ele>131</ele>
        <time>2022-10-21T23:59:49Z</time>
      </trkpt>
      <trkpt lat="43.70271" lon="3.4108">
        <ele>133</ele>
        <time>2022-10-22T00:00:05Z</time>
      </trkpt>
      <trkpt lat="43.70296" lon="3.41123">
        <ele>134</ele>
        <time>2022-10-22T00:00:14Z</time>
      </trkpt>
      <trkpt lat="43.70212" lon="3.41158">
        <ele>131</ele>
        <time>2022-10-22T00:00:35Z</time>
      </trkpt>
      <trkpt lat="43.70145" lon="3.41175">
        <ele>128</ele>
        <time>2022-10-22T00:00:50Z</time>
      </trkpt>
      <trkpt lat="43.70178" lon="3.4128">
        <ele>131</ele>
        <time>2022-10-22T00:01:10Z</time>
      </trkpt>
      <trkpt lat="43.70249" lon="3.41323">
        <ele>131</ele>
        <time>2022-10-22T00:01:28Z</time>
      </trkpt>
      <trkpt lat="43.7032" lon="3.41319">
        <ele>133</ele>
        <time>2022-10-22T00:01:45Z</time>
      </trkpt>
      <trkpt lat="43.70409" lon="3.41355">
        <ele>137</ele>
        <time>2022-10-22T00:02:06Z</time>
      </trkpt>
      <trkpt lat="43.70558" lon="3.41362">
        <ele>142</ele>
        <time>2022-10-22T00:02:41Z</time>
      </trkpt>
      <trkpt lat="43.70592" lon="3.41445">
        <ele>139</ele>
        <time>2022-10-22T00:02:57Z</time>
      </trkpt>
      <trkpt lat="43.70702" lon="3.41447">
        <ele>142</ele>
        <time>2022-10-22T00:03:23Z</time>
      </trkpt>
      <trkpt lat="43.70848" lon="3.41381">
        <ele>147</ele>
        <time>2022-10-22T00:03:59Z</time>
      </trkpt>
      <trkpt lat="43.70933" lon="3.41286">
        <ele>151</ele>
        <time>2022-10-22T00:04:24Z</time>
      </trkpt>
      <trkpt lat="43.71004" lon="3.41434">
        <ele>151</ele>
        <time>2022-10-22T00:04:54Z</time>
      </trkpt>
      <trkpt lat="43.71048" lon="3.41531">
        <ele>151</ele>
        <time>2022-10-22T00:05:13Z</time>
      </trkpt>
      <trkpt lat="43.71085" lon="3.41608">
        <ele>153</ele>
        <time>2022-10-22T00:05:29Z</time>
      </trkpt>
      <trkpt lat="43.71111" lon="3.41664">
        <ele>154</ele>
        <time>2022-10-22T00:05:40Z</time>
      </trkpt>
      <trkpt lat="43.71231" lon="3.41739">
        <ele>159</ele>
        <time>2022-10-22T00:06:11Z</time>
      </trkpt>
      <trkpt lat="43.71308" lon="3.41889">
        <ele>167</ele>
        <time>2022-10-22T00:06:42Z</time>
      </trkpt>
      <trkpt lat="43.71381" lon="3.42007">
        <ele>168</ele>
        <time>2022-10-22T00:07:08Z</time>
      </trkpt>
    </trkseg>
  </trk>
</gpx>